This is the latest recevied weather packets stored in our database for station/object OM3WYM-13. If no packets are shown the sender has not sent any weather packets the latest 10 day(s).
| Time | Temp. | Humidity | Pressure | Rain* | Wind** | Luminosity | Snow |
|---|---|---|---|---|---|---|---|
| 1777530007 | 5° C | 44% | 1029.6 hPa | - | - | - | - |
| 1777529408 | 4.44° C | 45% | 1029.6 hPa | - | - | - | - |
| 1777528807 | 3.89° C | 47% | 1029.5 hPa | - | - | - | - |
| 1777528207 | 2.78° C | 52% | 1029.7 hPa | - | - | - | - |
| 1777527608 | 1.11° C | 61% | 1030 hPa | - | - | - | - |
| 1777527008 | 0.56° C | 62% | 1030.2 hPa | - | - | - | - |
| 1777526408 | 0.56° C | 63% | 1030.3 hPa | - | - | - | - |
| 1777525808 | 0° C | 67% | 1030.4 hPa | - | - | - | - |
| 1777525208 | -0.56° C | 69% | 1030.4 hPa | - | - | - | - |
| 1777524607 | -1.11° C | 71% | 1030.4 hPa | - | - | - | - |
| 1777524008 | -1.67° C | 73% | 1030.4 hPa | - | - | - | - |
| 1777523407 | -2.22° C | 74% | 1030.4 hPa | - | - | - | - |
| 1777522807 | -2.78° C | 76% | 1030.4 hPa | - | - | - | - |
| 1777522209 | -2.78° C | 75% | 1030.4 hPa | - | - | - | - |
| 1777521607 | -3.33° C | 74% | 1030.4 hPa | - | - | - | - |
| 1777521008 | -3.33° C | 75% | 1030.3 hPa | - | - | - | - |
| 1777520407 | -3.33° C | 74% | 1030.1 hPa | - | - | - | - |
| 1777519808 | -3.33° C | 73% | 1030.1 hPa | - | - | - | - |
| 1777519208 | -3.33° C | 74% | 1030 hPa | - | - | - | - |
| 1777518608 | -3.33° C | 73% | 1029.9 hPa | - | - | - | - |
| 1777518008 | -3.33° C | 73% | 1029.9 hPa | - | - | - | - |
| 1777517407 | -2.78° C | 72% | 1029.8 hPa | - | - | - | - |
| 1777516808 | -2.78° C | 71% | 1029.7 hPa | - | - | - | - |
| 1777516208 | -2.78° C | 70% | 1029.7 hPa | - | - | - | - |
| 1777515608 | -2.22° C | 69% | 1029.6 hPa | - | - | - | - |
* Rain since midnight (hover to see other rain measurements)
** Current wind speed in m/s (hover to see current wind gust speed)